sensor_id;sensor_type;location;lat;lon;timestamp;temperature;humidity
25346;DHT22;13300;51.032;3.710;2022-10-17T00:01:05;16.20;99.90
25346;DHT22;13300;51.032;3.710;2022-10-17T00:03:32;16.30;99.90
25346;DHT22;13300;51.032;3.710;2022-10-17T00:05:58;16.20;99.90
25346;DHT22;13300;51.032;3.710;2022-10-17T00:08:24;16.10;99.90
25346;DHT22;13300;51.032;3.710;2022-10-17T00:10:58;16.20;99.90
25346;DHT22;13300;51.032;3.710;2022-10-17T00:13:25;16.20;99.90
25346;DHT22;13300;51.032;3.710;2022-10-17T00:15:51;16.20;99.90
25346;DHT22;13300;51.032;3.710;2022-10-17T00:18:17;16.30;99.90
25346;DHT22;13300;51.032;3.710;2022-10-17T00:20:42;16.20;99.90
25346;DHT22;13300;51.032;3.710;2022-10-17T00:23:08;16.10;99.90
25346;DHT22;13300;51.032;3.710;2022-10-17T00:25:34;16.10;99.90
25346;DHT22;13300;51.032;3.710;2022-10-17T00:27:59;16.10;99.90
25346;DHT22;13300;51.032;3.710;2022-10-17T00:30:25;16.10;99.90
25346;DHT22;13300;51.032;3.710;2022-10-17T00:32:51;16.10;99.90
25346;DHT22;13300;51.032;3.710;2022-10-17T00:35:16;16.00;99.90
25346;DHT22;13300;51.032;3.710;2022-10-17T00:37:42;16.10;99.90
25346;DHT22;13300;51.032;3.710;2022-10-17T00:40:08;16.10;99.90
25346;DHT22;13300;51.032;3.710;2022-10-17T00:42:34;16.20;99.90
25346;DHT22;13300;51.032;3.710;2022-10-17T00:45:07;16.20;99.90
25346;DHT22;13300;51.032;3.710;2022-10-17T00:47:37;16.20;99.90
25346;DHT22;13300;51.032;3.710;2022-10-17T00:50:04;16.30;99.90
25346;DHT22;13300;51.032;3.710;2022-10-17T00:52:30;16.40;99.90
25346;DHT22;13300;51.032;3.710;2022-10-17T00:55:23;16.50;99.90
25346;DHT22;13300;51.032;3.710;2022-10-17T00:57:50;16.60;99.90
25346;DHT22;13300;51.032;3.710;2022-10-17T01:00:17;16.50;99.90
25346;DHT22;13300;51.032;3.710;2022-10-17T01:02:44;16.50;99.90
25346;DHT22;13300;51.032;3.710;2022-10-17T01:05:11;16.50;99.90
25346;DHT22;13300;51.032;3.710;2022-10-17T01:07:38;16.50;99.90
25346;DHT22;13300;51.032;3.710;2022-10-17T01:10:05;16.50;99.90
25346;DHT22;13300;51.032;3.710;2022-10-17T01:24:13;16.40;99.90
25346;DHT22;13300;51.032;3.710;2022-10-17T01:27:12;16.40;99.90
25346;DHT22;13300;51.032;3.710;2022-10-17T01:30:24;16.50;99.90
25346;DHT22;13300;51.032;3.710;2022-10-17T01:35:37;16.50;99.90
25346;DHT22;13300;51.032;3.710;2022-10-17T01:38:13;16.50;99.90
25346;DHT22;13300;51.032;3.710;2022-10-17T01:40:49;16.50;99.90
25346;DHT22;13300;51.032;3.710;2022-10-17T01:43:33;16.60;99.90
25346;DHT22;13300;51.032;3.710;2022-10-17T01:46:14;16.60;99.90
25346;DHT22;13300;51.032;3.710;2022-10-17T01:48:43;16.50;99.90
25346;DHT22;13300;51.032;3.710;2022-10-17T01:51:25;16.50;99.90
25346;DHT22;13300;51.032;3.710;2022-10-17T01:54:02;16.60;99.90
25346;DHT22;13300;51.032;3.710;2022-10-17T01:56:31;16.70;99.90
25346;DHT22;13300;51.032;3.710;2022-10-17T01:59:06;16.60;99.90
25346;DHT22;13300;51.032;3.710;2022-10-17T02:01:35;16.60;99.90
25346;DHT22;13300;51.032;3.710;2022-10-17T02:04:02;16.60;99.90
25346;DHT22;13300;51.032;3.710;2022-10-17T02:06:34;16.60;99.90
25346;DHT22;13300;51.032;3.710;2022-10-17T02:08:59;16.60;99.90
25346;DHT22;13300;51.032;3.710;2022-10-17T02:11:26;16.60;99.90
25346;DHT22;13300;51.032;3.710;2022-10-17T02:19:45;16.70;99.90
25346;DHT22;13300;51.032;3.710;2022-10-17T02:22:20;16.60;99.90
25346;DHT22;13300;51.032;3.710;2022-10-17T02:24:59;16.60;99.90
25346;DHT22;13300;51.032;3.710;2022-10-17T02:30:05;16.60;99.90
25346;DHT22;13300;51.032;3.710;2022-10-17T02:32:42;16.70;99.90
25346;DHT22;13300;51.032;3.710;2022-10-17T02:35:11;16.70;99.90
25346;DHT22;13300;51.032;3.710;2022-10-17T02:37:37;16.70;99.90
25346;DHT22;13300;51.032;3.710;2022-10-17T02:40:08;16.70;99.90
25346;DHT22;13300;51.032;3.710;2022-10-17T02:42:35;16.60;99.90
25346;DHT22;13300;51.032;3.710;2022-10-17T02:45:02;16.60;99.90
25346;DHT22;13300;51.032;3.710;2022-10-17T02:47:35;16.60;99.90
25346;DHT22;13300;51.032;3.710;2022-10-17T02:50:02;16.70;99.90
25346;DHT22;13300;51.032;3.710;2022-10-17T02:52:50;16.80;99.90
25346;DHT22;13300;51.032;3.710;2022-10-17T02:55:25;16.90;99.90
25346;DHT22;13300;51.032;3.710;2022-10-17T02:57:57;16.80;99.90
25346;DHT22;13300;51.032;3.710;2022-10-17T03:00:24;17.00;99.90
25346;DHT22;13300;51.032;3.710;2022-10-17T03:02:52;16.90;99.90
25346;DHT22;13300;51.032;3.710;2022-10-17T03:05:25;17.00;99.90
25346;DHT22;13300;51.032;3.710;2022-10-17T03:07:52;17.00;99.90
25346;DHT22;13300;51.032;3.710;2022-10-17T03:10:19;17.10;99.90
25346;DHT22;13300;51.032;3.710;2022-10-17T03:12:45;17.10;99.90
25346;DHT22;13300;51.032;3.710;2022-10-17T03:15:11;17.10;99.90
25346;DHT22;13300;51.032;3.710;2022-10-17T03:17:37;17.10;99.90
25346;DHT22;13300;51.032;3.710;2022-10-17T03:20:03;17.20;99.90
25346;DHT22;13300;51.032;3.710;2022-10-17T03:22:30;17.20;99.90
25346;DHT22;13300;51.032;3.710;2022-10-17T03:24:55;17.40;99.90
25346;DHT22;13300;51.032;3.710;2022-10-17T03:27:21;17.50;99.90
25346;DHT22;13300;51.032;3.710;2022-10-17T03:29:46;17.60;99.90
25346;DHT22;13300;51.032;3.710;2022-10-17T03:32:12;17.70;99.90
25346;DHT22;13300;51.032;3.710;2022-10-17T03:34:38;17.70;99.90
25346;DHT22;13300;51.032;3.710;2022-10-17T03:37:03;17.70;99.90
25346;DHT22;13300;51.032;3.710;2022-10-17T03:39:29;17.70;99.90
25346;DHT22;13300;51.032;3.710;2022-10-17T03:41:55;17.50;99.90
25346;DHT22;13300;51.032;3.710;2022-10-17T03:44:21;17.50;99.90
25346;DHT22;13300;51.032;3.710;2022-10-17T03:46:46;17.60;99.90
25346;DHT22;13300;51.032;3.710;2022-10-17T03:49:12;17.60;99.90
25346;DHT22;13300;51.032;3.710;2022-10-17T03:51:38;17.60;99.90
25346;DHT22;13300;51.032;3.710;2022-10-17T03:54:03;17.60;99.90
25346;DHT22;13300;51.032;3.710;2022-10-17T03:56:29;17.60;99.90
25346;DHT22;13300;51.032;3.710;2022-10-17T03:58:55;17.60;99.90
25346;DHT22;13300;51.032;3.710;2022-10-17T04:01:21;17.50;99.90
25346;DHT22;13300;51.032;3.710;2022-10-17T04:03:51;17.50;99.90
25346;DHT22;13300;51.032;3.710;2022-10-17T04:06:17;17.40;99.90
25346;DHT22;13300;51.032;3.710;2022-10-17T04:08:43;17.40;99.90
25346;DHT22;13300;51.032;3.710;2022-10-17T04:11:12;17.40;99.90
25346;DHT22;13300;51.032;3.710;2022-10-17T04:13:38;17.40;99.90
25346;DHT22;13300;51.032;3.710;2022-10-17T04:16:06;17.40;99.90
25346;DHT22;13300;51.032;3.710;2022-10-17T04:18:33;17.50;99.90
25346;DHT22;13300;51.032;3.710;2022-10-17T04:21:03;17.60;99.90
25346;DHT22;13300;51.032;3.710;2022-10-17T04:23:29;17.40;99.90
25346;DHT22;13300;51.032;3.710;2022-10-17T04:25:56;17.40;99.90
25346;DHT22;13300;51.032;3.710;2022-10-17T04:28:22;17.30;99.90
25346;DHT22;13300;51.032;3.710;2022-10-17T04:31:05;17.10;99.90
25346;DHT22;13300;51.032;3.710;2022-10-17T04:33:32;17.10;99.90
25346;DHT22;13300;51.032;3.710;2022-10-17T04:35:59;17.00;99.90
25346;DHT22;13300;51.032;3.710;2022-10-17T04:38:26;17.10;99.90
25346;DHT22;13300;51.032;3.710;2022-10-17T04:40:52;17.20;99.90
25346;DHT22;13300;51.032;3.710;2022-10-17T04:43:18;17.20;99.90
25346;DHT22;13300;51.032;3.710;2022-10-17T04:45:44;17.20;99.90
25346;DHT22;13300;51.032;3.710;2022-10-17T04:48:10;17.10;99.90
25346;DHT22;13300;51.032;3.710;2022-10-17T04:50:35;17.10;99.90
25346;DHT22;13300;51.032;3.710;2022-10-17T04:53:01;17.20;99.90
25346;DHT22;13300;51.032;3.710;2022-10-17T04:55:27;17.30;99.90
25346;DHT22;13300;51.032;3.710;2022-10-17T04:57:53;17.40;99.90
25346;DHT22;13300;51.032;3.710;2022-10-17T05:00:18;17.40;99.90
25346;DHT22;13300;51.032;3.710;2022-10-17T05:02:44;17.50;99.90
25346;DHT22;13300;51.032;3.710;2022-10-17T05:05:10;17.50;99.90
25346;DHT22;13300;51.032;3.710;2022-10-17T05:07:39;17.50;99.90
25346;DHT22;13300;51.032;3.710;2022-10-17T05:10:05;17.60;99.90
25346;DHT22;13300;51.032;3.710;2022-10-17T05:12:31;17.60;99.90
25346;DHT22;13300;51.032;3.710;2022-10-17T05:15:05;17.70;99.90
25346;DHT22;13300;51.032;3.710;2022-10-17T05:17:31;17.70;99.90
25346;DHT22;13300;51.032;3.710;2022-10-17T05:19:57;17.80;99.90
25346;DHT22;13300;51.032;3.710;2022-10-17T05:22:22;17.80;99.90
25346;DHT22;13300;51.032;3.710;2022-10-17T05:24:48;17.80;99.90
25346;DHT22;13300;51.032;3.710;2022-10-17T05:27:13;17.80;99.90
25346;DHT22;13300;51.032;3.710;2022-10-17T05:29:39;17.60;99.90
25346;DHT22;13300;51.032;3.710;2022-10-17T05:32:05;17.70;99.90
25346;DHT22;13300;51.032;3.710;2022-10-17T05:34:30;17.80;99.90
25346;DHT22;13300;51.032;3.710;2022-10-17T05:36:57;17.70;99.90
25346;DHT22;13300;51.032;3.710;2022-10-17T05:39:23;17.80;99.90
25346;DHT22;13300;51.032;3.710;2022-10-17T05:41:48;17.80;99.90
25346;DHT22;13300;51.032;3.710;2022-10-17T05:44:16;17.90;99.90
25346;DHT22;13300;51.032;3.710;2022-10-17T05:46:42;17.90;99.90
25346;DHT22;13300;51.032;3.710;2022-10-17T05:49:09;18.00;99.90
25346;DHT22;13300;51.032;3.710;2022-10-17T05:51:34;18.20;99.90
25346;DHT22;13300;51.032;3.710;2022-10-17T05:54:00;18.20;99.90
25346;DHT22;13300;51.032;3.710;2022-10-17T05:56:26;18.20;99.90
25346;DHT22;13300;51.032;3.710;2022-10-17T05:58:52;18.20;99.90
25346;DHT22;13300;51.032;3.710;2022-10-17T06:01:18;18.10;99.90
25346;DHT22;13300;51.032;3.710;2022-10-17T06:03:43;18.10;99.90
25346;DHT22;13300;51.032;3.710;2022-10-17T06:06:11;18.10;99.90
25346;DHT22;13300;51.032;3.710;2022-10-17T06:08:37;18.10;99.90
25346;DHT22;13300;51.032;3.710;2022-10-17T06:11:03;17.90;99.90
25346;DHT22;13300;51.032;3.710;2022-10-17T06:13:30;17.70;99.90
25346;DHT22;13300;51.032;3.710;2022-10-17T06:15:56;17.80;99.90
25346;DHT22;13300;51.032;3.710;2022-10-17T06:18:22;17.90;99.90
25346;DHT22;13300;51.032;3.710;2022-10-17T06:20:48;17.80;99.90
25346;DHT22;13300;51.032;3.710;2022-10-17T06:23:14;17.90;99.90
25346;DHT22;13300;51.032;3.710;2022-10-17T06:25:40;17.80;99.90
25346;DHT22;13300;51.032;3.710;2022-10-17T06:28:08;17.80;99.90
25346;DHT22;13300;51.032;3.710;2022-10-17T06:30:37;17.70;99.90
25346;DHT22;13300;51.032;3.710;2022-10-17T06:33:03;17.60;99.90
25346;DHT22;13300;51.032;3.710;2022-10-17T06:35:30;17.50;99.90
25346;DHT22;13300;51.032;3.710;2022-10-17T06:37:56;17.30;99.90
25346;DHT22;13300;51.032;3.710;2022-10-17T06:40:21;17.20;99.90
25346;DHT22;13300;51.032;3.710;2022-10-17T06:42:47;17.20;99.90
25346;DHT22;13300;51.032;3.710;2022-10-17T06:45:13;17.20;99.90
25346;DHT22;13300;51.032;3.710;2022-10-17T06:47:39;17.10;99.90
25346;DHT22;13300;51.032;3.710;2022-10-17T06:50:05;17.20;99.90
25346;DHT22;13300;51.032;3.710;2022-10-17T06:52:31;17.10;99.90
25346;DHT22;13300;51.032;3.710;2022-10-17T06:54:56;17.20;99.90
25346;DHT22;13300;51.032;3.710;2022-10-17T06:57:22;17.20;99.90
25346;DHT22;13300;51.032;3.710;2022-10-17T06:59:48;17.30;99.90
25346;DHT22;13300;51.032;3.710;2022-10-17T07:02:13;17.30;99.90
25346;DHT22;13300;51.032;3.710;2022-10-17T07:04:39;17.40;99.90
25346;DHT22;13300;51.032;3.710;2022-10-17T07:07:04;17.30;99.90
25346;DHT22;13300;51.032;3.710;2022-10-17T07:09:30;17.10;99.90
25346;DHT22;13300;51.032;3.710;2022-10-17T07:11:57;17.10;99.90
25346;DHT22;13300;51.032;3.710;2022-10-17T07:14:23;17.10;99.90
25346;DHT22;13300;51.032;3.710;2022-10-17T07:16:56;17.00;99.90
25346;DHT22;13300;51.032;3.710;2022-10-17T07:19:23;17.10;99.90
25346;DHT22;13300;51.032;3.710;2022-10-17T07:21:48;17.00;99.90
25346;DHT22;13300;51.032;3.710;2022-10-17T07:24:14;17.10;99.90
25346;DHT22;13300;51.032;3.710;2022-10-17T07:26:40;17.00;99.90
25346;DHT22;13300;51.032;3.710;2022-10-17T07:29:05;16.90;99.90
25346;DHT22;13300;51.032;3.710;2022-10-17T07:31:32;16.90;99.90
25346;DHT22;13300;51.032;3.710;2022-10-17T07:33:59;16.80;99.90
25346;DHT22;13300;51.032;3.710;2022-10-17T07:36:25;16.90;99.90
25346;DHT22;13300;51.032;3.710;2022-10-17T07:38:50;16.90;99.90
25346;DHT22;13300;51.032;3.710;2022-10-17T07:41:16;17.00;99.90
25346;DHT22;13300;51.032;3.710;2022-10-17T07:43:43;17.10;99.90
25346;DHT22;13300;51.032;3.710;2022-10-17T07:46:10;17.10;99.90
25346;DHT22;13300;51.032;3.710;2022-10-17T07:48:38;17.00;99.90
25346;DHT22;13300;51.032;3.710;2022-10-17T07:51:07;16.90;99.90
25346;DHT22;13300;51.032;3.710;2022-10-17T07:53:36;16.80;99.90
25346;DHT22;13300;51.032;3.710;2022-10-17T07:56:07;16.70;99.90
25346;DHT22;13300;51.032;3.710;2022-10-17T07:58:34;16.70;99.90
25346;DHT22;13300;51.032;3.710;2022-10-17T08:01:01;16.70;99.90
25346;DHT22;13300;51.032;3.710;2022-10-17T08:03:27;16.60;99.90
25346;DHT22;13300;51.032;3.710;2022-10-17T08:05:56;16.60;99.90
25346;DHT22;13300;51.032;3.710;2022-10-17T08:08:22;16.60;99.90
25346;DHT22;13300;51.032;3.710;2022-10-17T08:10:48;16.70;99.90
25346;DHT22;13300;51.032;3.710;2022-10-17T08:13:13;16.70;99.90
25346;DHT22;13300;51.032;3.710;2022-10-17T08:15:39;16.80;99.90
25346;DHT22;13300;51.032;3.710;2022-10-17T08:18:04;16.80;99.90
25346;DHT22;13300;51.032;3.710;2022-10-17T08:20:30;16.80;99.90
25346;DHT22;13300;51.032;3.710;2022-10-17T08:22:56;16.90;99.90
25346;DHT22;13300;51.032;3.710;2022-10-17T08:25:24;16.90;99.90
25346;DHT22;13300;51.032;3.710;2022-10-17T08:27:50;16.90;99.90
25346;DHT22;13300;51.032;3.710;2022-10-17T08:30:16;17.00;99.90
25346;DHT22;13300;51.032;3.710;2022-10-17T08:32:42;17.00;99.90
25346;DHT22;13300;51.032;3.710;2022-10-17T08:35:08;16.90;99.90
25346;DHT22;13300;51.032;3.710;2022-10-17T08:37:34;16.90;99.90
25346;DHT22;13300;51.032;3.710;2022-10-17T08:39:59;16.90;99.90
25346;DHT22;13300;51.032;3.710;2022-10-17T08:45:46;17.10;99.90
25346;DHT22;13300;51.032;3.710;2022-10-17T08:48:17;17.30;99.90
25346;DHT22;13300;51.032;3.710;2022-10-17T08:53:42;17.30;99.90
25346;DHT22;13300;51.032;3.710;2022-10-17T08:56:18;17.30;99.90
25346;DHT22;13300;51.032;3.710;2022-10-17T08:58:44;17.40;99.90
25346;DHT22;13300;51.032;3.710;2022-10-17T09:01:21;17.50;99.90
25346;DHT22;13300;51.032;3.710;2022-10-17T09:10:06;17.40;99.90
25346;DHT22;13300;51.032;3.710;2022-10-17T09:12:41;17.30;99.90
25346;DHT22;13300;51.032;3.710;2022-10-17T09:18:29;17.20;99.90
25346;DHT22;13300;51.032;3.710;2022-10-17T09:23:49;17.30;99.90
25346;DHT22;13300;51.032;3.710;2022-10-17T09:26:16;17.30;99.90
25346;DHT22;13300;51.032;3.710;2022-10-17T09:28:42;17.40;99.90
25346;DHT22;13300;51.032;3.710;2022-10-17T09:31:23;17.50;99.90
25346;DHT22;13300;51.032;3.710;2022-10-17T09:33:54;17.40;99.90
25346;DHT22;13300;51.032;3.710;2022-10-17T09:36:34;17.40;99.90
25346;DHT22;13300;51.032;3.710;2022-10-17T09:39:18;17.40;99.90
25346;DHT22;13300;51.032;3.710;2022-10-17T09:41:49;17.50;99.90
25346;DHT22;13300;51.032;3.710;2022-10-17T09:44:24;17.70;99.90
25346;DHT22;13300;51.032;3.710;2022-10-17T09:49:40;17.80;99.90
25346;DHT22;13300;51.032;3.710;2022-10-17T09:52:19;17.90;99.90
25346;DHT22;13300;51.032;3.710;2022-10-17T09:55:00;18.00;99.90
25346;DHT22;13300;51.032;3.710;2022-10-17T09:57:27;17.80;99.90
25346;DHT22;13300;51.032;3.710;2022-10-17T10:00:01;17.70;99.90
25346;DHT22;13300;51.032;3.710;2022-10-17T10:02:29;17.70;99.90
25346;DHT22;13300;51.032;3.710;2022-10-17T10:05:05;17.50;99.90
25346;DHT22;13300;51.032;3.710;2022-10-17T10:07:40;17.50;99.90
25346;DHT22;13300;51.032;3.710;2022-10-17T10:10:22;17.50;99.90
25346;DHT22;13300;51.032;3.710;2022-10-17T10:15:35;17.70;99.90
25346;DHT22;13300;51.032;3.710;2022-10-17T10:18:02;17.90;99.90
25346;DHT22;13300;51.032;3.710;2022-10-17T10:20:37;18.10;99.90
25346;DHT22;13300;51.032;3.710;2022-10-17T10:23:10;18.30;99.90
25346;DHT22;13300;51.032;3.710;2022-10-17T10:25:36;18.70;99.90
25346;DHT22;13300;51.032;3.710;2022-10-17T10:28:09;19.10;99.90
25346;DHT22;13300;51.032;3.710;2022-10-17T10:30:35;19.30;99.90
25346;DHT22;13300;51.032;3.710;2022-10-17T10:33:01;19.70;99.90
25346;DHT22;13300;51.032;3.710;2022-10-17T10:35:32;19.70;99.90
25346;DHT22;13300;51.032;3.710;2022-10-17T10:38:01;20.00;99.90
25346;DHT22;13300;51.032;3.710;2022-10-17T10:40:37;19.70;99.90
25346;DHT22;13300;51.032;3.710;2022-10-17T10:45:48;19.60;99.90
25346;DHT22;13300;51.032;3.710;2022-10-17T10:48:25;19.80;99.90
25346;DHT22;13300;51.032;3.710;2022-10-17T10:53:48;20.10;99.90
25346;DHT22;13300;51.032;3.710;2022-10-17T10:56:23;20.60;99.90
25346;DHT22;13300;51.032;3.710;2022-10-17T11:01:24;21.00;99.90
25346;DHT22;13300;51.032;3.710;2022-10-17T11:06:28;20.40;99.90
25346;DHT22;13300;51.032;3.710;2022-10-17T11:09:17;20.30;99.90
25346;DHT22;13300;51.032;3.710;2022-10-17T11:12:38;20.00;99.90
25346;DHT22;13300;51.032;3.710;2022-10-17T11:14:52;19.60;99.90
25346;DHT22;13300;51.032;3.710;2022-10-17T11:17:29;19.60;99.90
25346;DHT22;13300;51.032;3.710;2022-10-17T11:22:31;19.80;99.90
25346;DHT22;13300;51.032;3.710;2022-10-17T11:27:36;20.00;99.90
25346;DHT22;13300;51.032;3.710;2022-10-17T11:30:02;20.10;99.90
25346;DHT22;13300;51.032;3.710;2022-10-17T11:32:39;20.20;99.90
25346;DHT22;13300;51.032;3.710;2022-10-17T11:35:32;20.10;99.90
25346;DHT22;13300;51.032;3.710;2022-10-17T11:40:58;19.80;99.90
25346;DHT22;13300;51.032;3.710;2022-10-17T11:43:46;19.80;99.90
25346;DHT22;13300;51.032;3.710;2022-10-17T11:46:23;20.10;99.90
25346;DHT22;13300;51.032;3.710;2022-10-17T11:48:59;20.20;99.90
25346;DHT22;13300;51.032;3.710;2022-10-17T11:51:29;20.40;99.90
25346;DHT22;13300;51.032;3.710;2022-10-17T11:59:27;20.50;99.90
25346;DHT22;13300;51.032;3.710;2022-10-17T12:02:07;20.30;99.90
25346;DHT22;13300;51.032;3.710;2022-10-17T12:12:50;20.30;99.90
25346;DHT22;13300;51.032;3.710;2022-10-17T12:17:45;20.40;99.90
25346;DHT22;13300;51.032;3.710;2022-10-17T12:25:35;20.70;99.90
25346;DHT22;13300;51.032;3.710;2022-10-17T12:30:33;20.60;99.90
25346;DHT22;13300;51.032;3.710;2022-10-17T12:33:27;20.60;99.90
25346;DHT22;13300;51.032;3.710;2022-10-17T12:57:54;21.00;99.90
25346;DHT22;13300;51.032;3.710;2022-10-17T13:03:16;20.80;99.90
25346;DHT22;13300;51.032;3.710;2022-10-17T13:05:48;20.80;99.90
25346;DHT22;13300;51.032;3.710;2022-10-17T13:08:20;20.90;99.90
25346;DHT22;13300;51.032;3.710;2022-10-17T13:10:49;20.90;99.90
25346;DHT22;13300;51.032;3.710;2022-10-17T13:13:20;20.90;99.90
25346;DHT22;13300;51.032;3.710;2022-10-17T13:15:51;21.00;99.90
25346;DHT22;13300;51.032;3.710;2022-10-17T13:18:24;21.10;99.90
25346;DHT22;13300;51.032;3.710;2022-10-17T13:21:14;20.90;99.90
25346;DHT22;13300;51.032;3.710;2022-10-17T13:23:40;20.90;99.90
25346;DHT22;13300;51.032;3.710;2022-10-17T13:28:31;20.80;99.90
25346;DHT22;13300;51.032;3.710;2022-10-17T13:30:57;21.00;99.90
25346;DHT22;13300;51.032;3.710;2022-10-17T13:33:36;20.90;99.90
25346;DHT22;13300;51.032;3.710;2022-10-17T13:36:05;20.90;99.90
25346;DHT22;13300;51.032;3.710;2022-10-17T13:38:33;20.90;99.90
25346;DHT22;13300;51.032;3.710;2022-10-17T13:41:00;21.10;99.90
25346;DHT22;13300;51.032;3.710;2022-10-17T13:43:27;21.30;99.90
25346;DHT22;13300;51.032;3.710;2022-10-17T13:45:56;21.30;99.90
25346;DHT22;13300;51.032;3.710;2022-10-17T13:48:27;21.40;99.90
25346;DHT22;13300;51.032;3.710;2022-10-17T13:50:56;21.40;99.90
25346;DHT22;13300;51.032;3.710;2022-10-17T13:53:37;21.20;99.90
25346;DHT22;13300;51.032;3.710;2022-10-17T13:56:16;21.20;99.90
25346;DHT22;13300;51.032;3.710;2022-10-17T13:58:44;21.30;99.90
25346;DHT22;13300;51.032;3.710;2022-10-17T14:01:11;21.40;99.90
25346;DHT22;13300;51.032;3.710;2022-10-17T14:03:37;21.30;99.90
25346;DHT22;13300;51.032;3.710;2022-10-17T14:08:36;21.40;99.90
25346;DHT22;13300;51.032;3.710;2022-10-17T14:11:13;21.40;99.90
25346;DHT22;13300;51.032;3.710;2022-10-17T14:13:39;21.50;99.90
25346;DHT22;13300;51.032;3.710;2022-10-17T14:16:05;21.60;99.90
25346;DHT22;13300;51.032;3.710;2022-10-17T14:18:34;21.60;99.90
25346;DHT22;13300;51.032;3.710;2022-10-17T14:21:01;21.40;99.90
25346;DHT22;13300;51.032;3.710;2022-10-17T14:23:37;21.00;99.90
25346;DHT22;13300;51.032;3.710;2022-10-17T14:26:11;21.00;99.90
25346;DHT22;13300;51.032;3.710;2022-10-17T14:28:39;21.10;99.90
25346;DHT22;13300;51.032;3.710;2022-10-17T14:33:44;21.30;99.90
25346;DHT22;13300;51.032;3.710;2022-10-17T14:36:11;21.40;99.90
25346;DHT22;13300;51.032;3.710;2022-10-17T14:38:37;21.40;99.90
25346;DHT22;13300;51.032;3.710;2022-10-17T14:41:25;21.20;99.90
25346;DHT22;13300;51.032;3.710;2022-10-17T14:44:01;21.10;99.90
25346;DHT22;13300;51.032;3.710;2022-10-17T14:46:27;20.90;99.90
25346;DHT22;13300;51.032;3.710;2022-10-17T14:49:13;20.90;99.90
25346;DHT22;13300;51.032;3.710;2022-10-17T14:54:35;20.90;99.90
25346;DHT22;13300;51.032;3.710;2022-10-17T14:57:13;20.90;99.90
25346;DHT22;13300;51.032;3.710;2022-10-17T14:59:40;20.70;99.90
25346;DHT22;13300;51.032;3.710;2022-10-17T15:02:05;20.80;99.90
25346;DHT22;13300;51.032;3.710;2022-10-17T15:04:31;20.70;99.90
25346;DHT22;13300;51.032;3.710;2022-10-17T15:06:56;20.50;99.90
25346;DHT22;13300;51.032;3.710;2022-10-17T15:09:22;20.40;99.90
25346;DHT22;13300;51.032;3.710;2022-10-17T15:11:48;20.40;99.90
25346;DHT22;13300;51.032;3.710;2022-10-17T15:14:14;20.20;99.90
25346;DHT22;13300;51.032;3.710;2022-10-17T15:16:40;20.20;99.90
25346;DHT22;13300;51.032;3.710;2022-10-17T15:19:05;20.40;99.90
25346;DHT22;13300;51.032;3.710;2022-10-17T15:21:31;20.40;99.90
25346;DHT22;13300;51.032;3.710;2022-10-17T15:23:57;20.40;99.90
25346;DHT22;13300;51.032;3.710;2022-10-17T15:26:25;20.30;99.90
25346;DHT22;13300;51.032;3.710;2022-10-17T15:28:52;19.80;99.90
25346;DHT22;13300;51.032;3.710;2022-10-17T15:31:20;19.90;99.90
25346;DHT22;13300;51.032;3.710;2022-10-17T15:33:46;19.60;99.90
25346;DHT22;13300;51.032;3.710;2022-10-17T15:38:47;19.70;99.90
25346;DHT22;13300;51.032;3.710;2022-10-17T15:41:13;19.60;99.90
25346;DHT22;13300;51.032;3.710;2022-10-17T15:43:39;19.60;99.90
25346;DHT22;13300;51.032;3.710;2022-10-17T15:46:12;19.70;99.90
25346;DHT22;13300;51.032;3.710;2022-10-17T15:48:38;19.90;99.90
25346;DHT22;13300;51.032;3.710;2022-10-17T15:51:04;19.90;99.90
25346;DHT22;13300;51.032;3.710;2022-10-17T15:53:30;19.90;99.90
25346;DHT22;13300;51.032;3.710;2022-10-17T15:55:55;19.70;99.90
25346;DHT22;13300;51.032;3.710;2022-10-17T15:58:22;19.60;99.90
25346;DHT22;13300;51.032;3.710;2022-10-17T16:00:48;19.40;99.90
25346;DHT22;13300;51.032;3.710;2022-10-17T16:03:13;19.30;99.90
25346;DHT22;13300;51.032;3.710;2022-10-17T16:05:39;19.20;99.90
25346;DHT22;13300;51.032;3.710;2022-10-17T16:08:05;19.20;99.90
25346;DHT22;13300;51.032;3.710;2022-10-17T16:10:31;19.30;99.90
25346;DHT22;13300;51.032;3.710;2022-10-17T16:12:56;19.50;99.90
25346;DHT22;13300;51.032;3.710;2022-10-17T16:15:24;19.50;99.90
25346;DHT22;13300;51.032;3.710;2022-10-17T16:17:52;19.50;99.90
25346;DHT22;13300;51.032;3.710;2022-10-17T16:20:18;19.50;99.90
25346;DHT22;13300;51.032;3.710;2022-10-17T16:22:45;19.70;99.90
25346;DHT22;13300;51.032;3.710;2022-10-17T16:25:22;19.70;99.90
25346;DHT22;13300;51.032;3.710;2022-10-17T16:27:50;19.60;99.90
25346;DHT22;13300;51.032;3.710;2022-10-17T16:30:17;19.50;99.90
25346;DHT22;13300;51.032;3.710;2022-10-17T16:32:43;19.50;99.90
25346;DHT22;13300;51.032;3.710;2022-10-17T16:35:13;19.50;99.90
25346;DHT22;13300;51.032;3.710;2022-10-17T16:37:40;19.40;99.90
25346;DHT22;13300;51.032;3.710;2022-10-17T16:40:06;19.40;99.90
25346;DHT22;13300;51.032;3.710;2022-10-17T16:42:32;19.40;99.90
25346;DHT22;13300;51.032;3.710;2022-10-17T16:44:57;19.10;99.90
25346;DHT22;13300;51.032;3.710;2022-10-17T16:47:23;19.00;99.90
25346;DHT22;13300;51.032;3.710;2022-10-17T16:49:49;18.90;99.90
25346;DHT22;13300;51.032;3.710;2022-10-17T16:52:14;18.70;99.90
25346;DHT22;13300;51.032;3.710;2022-10-17T16:54:40;18.60;99.90
25346;DHT22;13300;51.032;3.710;2022-10-17T16:57:05;18.60;99.90
25346;DHT22;13300;51.032;3.710;2022-10-17T16:59:31;18.50;99.90
25346;DHT22;13300;51.032;3.710;2022-10-17T17:01:57;18.60;99.90
25346;DHT22;13300;51.032;3.710;2022-10-17T17:04:22;18.60;99.90
25346;DHT22;13300;51.032;3.710;2022-10-17T17:06:48;18.60;99.90
25346;DHT22;13300;51.032;3.710;2022-10-17T17:09:14;18.60;99.90
25346;DHT22;13300;51.032;3.710;2022-10-17T17:11:40;18.50;99.90
25346;DHT22;13300;51.032;3.710;2022-10-17T17:14:06;18.30;99.90
25346;DHT22;13300;51.032;3.710;2022-10-17T17:16:33;18.20;99.90
25346;DHT22;13300;51.032;3.710;2022-10-17T17:19:04;18.30;99.90
25346;DHT22;13300;51.032;3.710;2022-10-17T17:21:31;18.40;99.90
25346;DHT22;13300;51.032;3.710;2022-10-17T17:24:01;18.20;99.90
25346;DHT22;13300;51.032;3.710;2022-10-17T17:26:31;18.10;99.90
25346;DHT22;13300;51.032;3.710;2022-10-17T17:28:58;18.10;99.90
25346;DHT22;13300;51.032;3.710;2022-10-17T17:31:26;18.10;99.90
25346;DHT22;13300;51.032;3.710;2022-10-17T17:33:52;18.30;99.90
25346;DHT22;13300;51.032;3.710;2022-10-17T17:36:27;18.10;99.90
25346;DHT22;13300;51.032;3.710;2022-10-17T17:38:56;18.00;99.90
25346;DHT22;13300;51.032;3.710;2022-10-17T17:41:22;17.90;99.90
25346;DHT22;13300;51.032;3.710;2022-10-17T17:43:49;17.80;99.90
25346;DHT22;13300;51.032;3.710;2022-10-17T17:46:17;17.90;99.90
25346;DHT22;13300;51.032;3.710;2022-10-17T17:48:44;17.80;99.90